sensor_id;sensor_type;location;lat;lon;timestamp;P1;durP1;ratioP1;P2;durP2;ratioP2
52025;SDS011;38041;40.058;18.328;2023-04-01T00:01:51;41.73;;;5.60;;
52025;SDS011;38041;40.058;18.328;2023-04-01T00:04:18;37.60;;;5.43;;
52025;SDS011;38041;40.058;18.328;2023-04-01T00:06:47;38.97;;;5.43;;
52025;SDS011;38041;40.058;18.328;2023-04-01T00:09:14;41.93;;;7.17;;
52025;SDS011;38041;40.058;18.328;2023-04-01T00:11:42;31.93;;;5.57;;
52025;SDS011;38041;40.058;18.328;2023-04-01T00:14:11;45.03;;;7.77;;
52025;SDS011;38041;40.058;18.328;2023-04-01T00:16:39;45.17;;;7.77;;
52025;SDS011;38041;40.058;18.328;2023-04-01T00:19:07;42.43;;;5.93;;
52025;SDS011;38041;40.058;18.328;2023-04-01T00:21:35;37.87;;;6.70;;
52025;SDS011;38041;40.058;18.328;2023-04-01T00:24:03;35.23;;;4.77;;
52025;SDS011;38041;40.058;18.328;2023-04-01T00:26:31;30.50;;;4.40;;
52025;SDS011;38041;40.058;18.328;2023-04-01T00:28:58;48.13;;;5.63;;
52025;SDS011;38041;40.058;18.328;2023-04-01T00:31:27;42.13;;;5.43;;
52025;SDS011;38041;40.058;18.328;2023-04-01T00:33:55;44.20;;;6.23;;
52025;SDS011;38041;40.058;18.328;2023-04-01T00:36:23;52.90;;;5.60;;
52025;SDS011;38041;40.058;18.328;2023-04-01T00:38:51;47.27;;;5.90;;
52025;SDS011;38041;40.058;18.328;2023-04-01T00:41:19;43.13;;;8.33;;
52025;SDS011;38041;40.058;18.328;2023-04-01T00:43:49;46.93;;;7.37;;
52025;SDS011;38041;40.058;18.328;2023-04-01T00:46:17;41.97;;;5.73;;
52025;SDS011;38041;40.058;18.328;2023-04-01T00:48:47;42.17;;;6.77;;
52025;SDS011;38041;40.058;18.328;2023-04-01T00:51:17;30.67;;;7.00;;
52025;SDS011;38041;40.058;18.328;2023-04-01T00:53:47;44.40;;;6.40;;
52025;SDS011;38041;40.058;18.328;2023-04-01T00:56:17;53.47;;;7.90;;
52025;SDS011;38041;40.058;18.328;2023-04-01T00:58:47;49.27;;;9.40;;
52025;SDS011;38041;40.058;18.328;2023-04-01T01:01:16;50.10;;;6.47;;
52025;SDS011;38041;40.058;18.328;2023-04-01T01:03:43;66.70;;;8.00;;
52025;SDS011;38041;40.058;18.328;2023-04-01T01:06:26;45.67;;;6.87;;
52025;SDS011;38041;40.058;18.328;2023-04-01T01:14:27;48.00;;;7.13;;
52025;SDS011;38041;40.058;18.328;2023-04-01T01:17:04;52.60;;;7.60;;
52025;SDS011;38041;40.058;18.328;2023-04-01T01:25:27;42.07;;;5.83;;
52025;SDS011;38041;40.058;18.328;2023-04-01T01:28:04;37.33;;;5.93;;
52025;SDS011;38041;40.058;18.328;2023-04-01T01:30:47;39.27;;;5.50;;
52025;SDS011;38041;40.058;18.328;2023-04-01T01:33:19;43.10;;;6.10;;
52025;SDS011;38041;40.058;18.328;2023-04-01T01:35:49;56.37;;;7.73;;
52025;SDS011;38041;40.058;18.328;2023-04-01T01:38:21;57.10;;;7.63;;
52025;SDS011;38041;40.058;18.328;2023-04-01T01:40:55;51.60;;;5.60;;
52025;SDS011;38041;40.058;18.328;2023-04-01T01:43:26;43.43;;;5.53;;
52025;SDS011;38041;40.058;18.328;2023-04-01T01:46:01;43.50;;;4.83;;
52025;SDS011;38041;40.058;18.328;2023-04-01T01:48:31;38.43;;;5.73;;
52025;SDS011;38041;40.058;18.328;2023-04-01T01:51:00;50.00;;;6.67;;
52025;SDS011;38041;40.058;18.328;2023-04-01T01:53:27;32.73;;;5.57;;
52025;SDS011;38041;40.058;18.328;2023-04-01T01:55:55;36.73;;;4.97;;
52025;SDS011;38041;40.058;18.328;2023-04-01T01:58:28;38.17;;;5.37;;
52025;SDS011;38041;40.058;18.328;2023-04-01T02:01:02;35.67;;;7.27;;
52025;SDS011;38041;40.058;18.328;2023-04-01T02:03:31;36.43;;;5.47;;
52025;SDS011;38041;40.058;18.328;2023-04-01T02:06:00;37.37;;;5.83;;
52025;SDS011;38041;40.058;18.328;2023-04-01T02:08:35;44.47;;;6.53;;
52025;SDS011;38041;40.058;18.328;2023-04-01T02:11:05;43.10;;;7.37;;
52025;SDS011;38041;40.058;18.328;2023-04-01T02:16:16;31.90;;;4.57;;
52025;SDS011;38041;40.058;18.328;2023-04-01T02:18:48;42.97;;;8.43;;
52025;SDS011;38041;40.058;18.328;2023-04-01T02:21:17;36.80;;;7.20;;
52025;SDS011;38041;40.058;18.328;2023-04-01T02:23:46;40.90;;;6.00;;
52025;SDS011;38041;40.058;18.328;2023-04-01T02:26:14;43.50;;;8.00;;
52025;SDS011;38041;40.058;18.328;2023-04-01T02:28:42;52.53;;;7.03;;
52025;SDS011;38041;40.058;18.328;2023-04-01T02:31:11;50.43;;;7.03;;
52025;SDS011;38041;40.058;18.328;2023-04-01T02:33:40;44.17;;;5.97;;
52025;SDS011;38041;40.058;18.328;2023-04-01T02:36:14;37.97;;;6.17;;
52025;SDS011;38041;40.058;18.328;2023-04-01T02:38:43;48.95;;;6.60;;
52025;SDS011;38041;40.058;18.328;2023-04-01T02:41:11;51.97;;;9.03;;
52025;SDS011;38041;40.058;18.328;2023-04-01T02:43:40;37.00;;;5.10;;
52025;SDS011;38041;40.058;18.328;2023-04-01T02:46:08;47.70;;;6.80;;
52025;SDS011;38041;40.058;18.328;2023-04-01T02:48:36;54.87;;;9.93;;
52025;SDS011;38041;40.058;18.328;2023-04-01T02:51:04;46.60;;;6.47;;
52025;SDS011;38041;40.058;18.328;2023-04-01T02:53:31;39.97;;;5.50;;
52025;SDS011;38041;40.058;18.328;2023-04-01T02:55:59;46.10;;;5.67;;
52025;SDS011;38041;40.058;18.328;2023-04-01T02:58:27;42.67;;;5.77;;
52025;SDS011;38041;40.058;18.328;2023-04-01T03:00:54;42.90;;;6.30;;
52025;SDS011;38041;40.058;18.328;2023-04-01T03:03:22;40.57;;;6.83;;
52025;SDS011;38041;40.058;18.328;2023-04-01T03:05:50;46.27;;;6.67;;
52025;SDS011;38041;40.058;18.328;2023-04-01T03:08:18;38.57;;;7.67;;
52025;SDS011;38041;40.058;18.328;2023-04-01T03:10:46;49.63;;;7.53;;
52025;SDS011;38041;40.058;18.328;2023-04-01T03:13:14;36.33;;;5.40;;
52025;SDS011;38041;40.058;18.328;2023-04-01T03:15:42;42.47;;;7.10;;
52025;SDS011;38041;40.058;18.328;2023-04-01T03:18:10;48.23;;;6.60;;
52025;SDS011;38041;40.058;18.328;2023-04-01T03:20:37;48.63;;;5.57;;
52025;SDS011;38041;40.058;18.328;2023-04-01T03:23:05;56.63;;;5.40;;
52025;SDS011;38041;40.058;18.328;2023-04-01T03:25:33;37.30;;;6.33;;
52025;SDS011;38041;40.058;18.328;2023-04-01T03:28:00;36.80;;;6.57;;
52025;SDS011;38041;40.058;18.328;2023-04-01T03:30:29;43.50;;;6.03;;
52025;SDS011;38041;40.058;18.328;2023-04-01T03:32:57;37.27;;;5.97;;
52025;SDS011;38041;40.058;18.328;2023-04-01T03:35:27;34.40;;;5.63;;
52025;SDS011;38041;40.058;18.328;2023-04-01T03:37:55;43.40;;;6.63;;
52025;SDS011;38041;40.058;18.328;2023-04-01T03:40:23;36.87;;;5.97;;
52025;SDS011;38041;40.058;18.328;2023-04-01T03:42:52;48.20;;;7.00;;
52025;SDS011;38041;40.058;18.328;2023-04-01T03:45:21;46.20;;;7.30;;
52025;SDS011;38041;40.058;18.328;2023-04-01T03:47:48;45.13;;;5.63;;
52025;SDS011;38041;40.058;18.328;2023-04-01T03:50:17;50.43;;;8.33;;
52025;SDS011;38041;40.058;18.328;2023-04-01T03:52:46;51.03;;;8.43;;
52025;SDS011;38041;40.058;18.328;2023-04-01T03:55:13;35.73;;;6.10;;
52025;SDS011;38041;40.058;18.328;2023-04-01T03:57:42;53.63;;;6.67;;
52025;SDS011;38041;40.058;18.328;2023-04-01T04:00:17;44.65;;;8.23;;
52025;SDS011;38041;40.058;18.328;2023-04-01T04:02:49;40.87;;;8.30;;
52025;SDS011;38041;40.058;18.328;2023-04-01T04:05:23;43.10;;;7.13;;
52025;SDS011;38041;40.058;18.328;2023-04-01T04:07:50;41.77;;;7.03;;
52025;SDS011;38041;40.058;18.328;2023-04-01T04:10:19;49.27;;;7.67;;
52025;SDS011;38041;40.058;18.328;2023-04-01T04:12:47;42.53;;;7.90;;
52025;SDS011;38041;40.058;18.328;2023-04-01T04:15:17;50.33;;;7.03;;
52025;SDS011;38041;40.058;18.328;2023-04-01T04:17:45;37.40;;;5.67;;
52025;SDS011;38041;40.058;18.328;2023-04-01T04:20:14;46.23;;;6.33;;
52025;SDS011;38041;40.058;18.328;2023-04-01T04:22:41;42.40;;;7.60;;
52025;SDS011;38041;40.058;18.328;2023-04-01T04:25:09;43.63;;;5.67;;
52025;SDS011;38041;40.058;18.328;2023-04-01T04:27:38;39.97;;;5.33;;
52025;SDS011;38041;40.058;18.328;2023-04-01T04:30:08;37.10;;;6.53;;
52025;SDS011;38041;40.058;18.328;2023-04-01T04:32:36;41.00;;;9.07;;
52025;SDS011;38041;40.058;18.328;2023-04-01T04:35:04;34.73;;;6.00;;
52025;SDS011;38041;40.058;18.328;2023-04-01T04:37:33;42.67;;;7.30;;
52025;SDS011;38041;40.058;18.328;2023-04-01T04:40:01;41.87;;;5.83;;
52025;SDS011;38041;40.058;18.328;2023-04-01T04:42:30;43.20;;;8.30;;
52025;SDS011;38041;40.058;18.328;2023-04-01T04:45:04;36.07;;;4.70;;
52025;SDS011;38041;40.058;18.328;2023-04-01T04:47:32;38.33;;;7.53;;
52025;SDS011;38041;40.058;18.328;2023-04-01T04:49:59;40.47;;;6.17;;
52025;SDS011;38041;40.058;18.328;2023-04-01T04:52:27;37.33;;;5.80;;
52025;SDS011;38041;40.058;18.328;2023-04-01T04:54:55;42.97;;;5.73;;
52025;SDS011;38041;40.058;18.328;2023-04-01T04:57:23;42.83;;;6.60;;
52025;SDS011;38041;40.058;18.328;2023-04-01T04:59:54;57.50;;;8.80;;
52025;SDS011;38041;40.058;18.328;2023-04-01T05:02:45;33.63;;;6.33;;
52025;SDS011;38041;40.058;18.328;2023-04-01T05:05:13;44.20;;;6.60;;
52025;SDS011;38041;40.058;18.328;2023-04-01T05:07:41;57.03;;;14.83;;
52025;SDS011;38041;40.058;18.328;2023-04-01T05:10:09;43.63;;;18.20;;
52025;SDS011;38041;40.058;18.328;2023-04-01T05:12:37;54.73;;;25.50;;
52025;SDS011;38041;40.058;18.328;2023-04-01T05:15:08;55.80;;;14.00;;
52025;SDS011;38041;40.058;18.328;2023-04-01T05:17:37;56.10;;;20.40;;
52025;SDS011;38041;40.058;18.328;2023-04-01T05:20:05;67.97;;;25.13;;
52025;SDS011;38041;40.058;18.328;2023-04-01T05:22:34;83.77;;;35.13;;
52025;SDS011;38041;40.058;18.328;2023-04-01T05:25:01;76.27;;;27.17;;
52025;SDS011;38041;40.058;18.328;2023-04-01T05:27:29;55.33;;;23.20;;
52025;SDS011;38041;40.058;18.328;2023-04-01T05:29:59;50.17;;;12.23;;
52025;SDS011;38041;40.058;18.328;2023-04-01T05:32:53;49.77;;;15.40;;
52025;SDS011;38041;40.058;18.328;2023-04-01T05:35:21;49.80;;;13.33;;
52025;SDS011;38041;40.058;18.328;2023-04-01T05:37:48;46.30;;;10.53;;
52025;SDS011;38041;40.058;18.328;2023-04-01T05:40:17;43.03;;;7.17;;
52025;SDS011;38041;40.058;18.328;2023-04-01T05:42:45;30.63;;;6.33;;
52025;SDS011;38041;40.058;18.328;2023-04-01T05:45:14;35.60;;;6.87;;
52025;SDS011;38041;40.058;18.328;2023-04-01T05:48:05;33.90;;;7.83;;
52025;SDS011;38041;40.058;18.328;2023-04-01T05:50:39;42.37;;;5.93;;
52025;SDS011;38041;40.058;18.328;2023-04-01T05:53:08;46.13;;;7.33;;
52025;SDS011;38041;40.058;18.328;2023-04-01T05:55:40;42.40;;;7.83;;
52025;SDS011;38041;40.058;18.328;2023-04-01T05:58:08;45.70;;;10.67;;
52025;SDS011;38041;40.058;18.328;2023-04-01T06:00:38;48.73;;;10.23;;
52025;SDS011;38041;40.058;18.328;2023-04-01T06:03:06;38.60;;;10.20;;
52025;SDS011;38041;40.058;18.328;2023-04-01T06:05:38;54.13;;;12.43;;
52025;SDS011;38041;40.058;18.328;2023-04-01T06:08:16;54.10;;;11.30;;
52025;SDS011;38041;40.058;18.328;2023-04-01T06:39:46;30.07;;;10.03;;
52025;SDS011;38041;40.058;18.328;2023-04-01T06:45:36;31.70;;;7.97;;
52025;SDS011;38041;40.058;18.328;2023-04-01T06:54:17;23.53;;;4.57;;
52025;SDS011;38041;40.058;18.328;2023-04-01T06:57:08;35.07;;;5.87;;
52025;SDS011;38041;40.058;18.328;2023-04-01T06:59:40;58.80;;;34.37;;
52025;SDS011;38041;40.058;18.328;2023-04-01T07:04:41;46.37;;;22.07;;
52025;SDS011;38041;40.058;18.328;2023-04-01T07:07:16;49.40;;;25.30;;
52025;SDS011;38041;40.058;18.328;2023-04-01T07:09:55;134.40;;;87.50;;
52025;SDS011;38041;40.058;18.328;2023-04-01T07:15:22;103.57;;;62.17;;
52025;SDS011;38041;40.058;18.328;2023-04-01T07:17:53;81.03;;;49.17;;
52025;SDS011;38041;40.058;18.328;2023-04-01T07:20:24;71.70;;;39.80;;
52025;SDS011;38041;40.058;18.328;2023-04-01T07:22:55;25.87;;;8.40;;
52025;SDS011;38041;40.058;18.328;2023-04-01T07:25:45;79.43;;;45.30;;
52025;SDS011;38041;40.058;18.328;2023-04-01T07:28:33;181.90;;;114.43;;
52025;SDS011;38041;40.058;18.328;2023-04-01T07:34:46;114.00;;;71.30;;
52025;SDS011;38041;40.058;18.328;2023-04-01T07:36:51;65.47;;;38.27;;
52025;SDS011;38041;40.058;18.328;2023-04-01T07:42:24;169.40;;;107.70;;
52025;SDS011;38041;40.058;18.328;2023-04-01T07:48:21;38.57;;;17.27;;
52025;SDS011;38041;40.058;18.328;2023-04-01T07:53:53;89.33;;;48.97;;
52025;SDS011;38041;40.058;18.328;2023-04-01T07:56:15;49.13;;;27.13;;
52025;SDS011;38041;40.058;18.328;2023-04-01T08:15:26;46.10;;;24.10;;
52025;SDS011;38041;40.058;18.328;2023-04-01T08:18:17;18.83;;;5.87;;
52025;SDS011;38041;40.058;18.328;2023-04-01T08:20:59;20.55;;;9.40;;
52025;SDS011;38041;40.058;18.328;2023-04-01T08:23:30;20.13;;;5.27;;
52025;SDS011;38041;40.058;18.328;2023-04-01T08:26:05;48.10;;;26.63;;
52025;SDS011;38041;40.058;18.328;2023-04-01T08:29:25;53.10;;;28.93;;
52025;SDS011;38041;40.058;18.328;2023-04-01T08:31:39;42.03;;;20.93;;
52025;SDS011;38041;40.058;18.328;2023-04-01T08:34:16;97.27;;;62.07;;
52025;SDS011;38041;40.058;18.328;2023-04-01T08:36:53;27.73;;;6.88;;
52025;SDS011;38041;40.058;18.328;2023-04-01T08:39:33;45.05;;;23.65;;
52025;SDS011;38041;40.058;18.328;2023-04-01T08:56:06;35.80;;;16.73;;
52025;SDS011;38041;40.058;18.328;2023-04-01T09:04:11;36.42;;;17.70;;
52025;SDS011;38041;40.058;18.328;2023-04-01T09:06:47;45.23;;;23.50;;
52025;SDS011;38041;40.058;18.328;2023-04-01T09:09:27;26.80;;;9.00;;
52025;SDS011;38041;40.058;18.328;2023-04-01T09:17:21;19.33;;;6.28;;
52025;SDS011;38041;40.058;18.328;2023-04-01T09:28:01;39.92;;;13.98;;
52025;SDS011;38041;40.058;18.328;2023-04-01T09:40:47;29.80;;;7.90;;
52025;SDS011;38041;40.058;18.328;2023-04-01T09:43:27;24.70;;;6.70;;
52025;SDS011;38041;40.058;18.328;2023-04-01T09:46:09;27.52;;;12.98;;
52025;SDS011;38041;40.058;18.328;2023-04-01T11:38:14;10.18;;;2.10;;
52025;SDS011;38041;40.058;18.328;2023-04-01T11:57:22;18.80;;;2.03;;
52025;SDS011;38041;40.058;18.328;2023-04-01T12:00:04;8.02;;;1.60;;
52025;SDS011;38041;40.058;18.328;2023-04-01T12:15:38;6.13;;;2.63;;
52025;SDS011;38041;40.058;18.328;2023-04-01T12:26:35;12.43;;;2.80;;
52025;SDS011;38041;40.058;18.328;2023-04-01T12:47:49;8.73;;;1.20;;
52025;SDS011;38041;40.058;18.328;2023-04-01T13:03:58;11.32;;;1.80;;
52025;SDS011;38041;40.058;18.328;2023-04-01T13:20:14;23.70;;;3.80;;
52025;SDS011;38041;40.058;18.328;2023-04-01T13:25:25;7.40;;;1.42;;
52025;SDS011;38041;40.058;18.328;2023-04-01T13:27:56;9.00;;;2.08;;
52025;SDS011;38041;40.058;18.328;2023-04-01T13:30:35;9.20;;;1.52;;
52025;SDS011;38041;40.058;18.328;2023-04-01T13:33:17;14.98;;;2.15;;
52025;SDS011;38041;40.058;18.328;2023-04-01T13:35:56;10.95;;;1.20;;
52025;SDS011;38041;40.058;18.328;2023-04-01T13:43:48;10.10;;;2.42;;
52025;SDS011;38041;40.058;18.328;2023-04-01T13:51:44;5.57;;;1.17;;
52025;SDS011;38041;40.058;18.328;2023-04-01T13:54:16;7.15;;;1.40;;
52025;SDS011;38041;40.058;18.328;2023-04-01T14:01:58;10.77;;;1.65;;
52025;SDS011;38041;40.058;18.328;2023-04-01T14:07:08;6.10;;;0.82;;
52025;SDS011;38041;40.058;18.328;2023-04-01T14:12:10;11.48;;;1.38;;
52025;SDS011;38041;40.058;18.328;2023-04-01T14:25:39;10.80;;;1.77;;
52025;SDS011;38041;40.058;18.328;2023-04-01T14:36:12;8.55;;;1.20;;
52025;SDS011;38041;40.058;18.328;2023-04-01T14:49:27;3.95;;;1.10;;
52025;SDS011;38041;40.058;18.328;2023-04-01T14:52:03;10.93;;;0.90;;
52025;SDS011;38041;40.058;18.328;2023-04-01T14:54:38;10.93;;;1.77;;
52025;SDS011;38041;40.058;18.328;2023-04-01T14:59:46;6.50;;;1.55;;
52025;SDS011;38041;40.058;18.328;2023-04-01T15:18:12;9.65;;;1.85;;
52025;SDS011;38041;40.058;18.328;2023-04-01T15:35:49;9.32;;;2.08;;
52025;SDS011;38041;40.058;18.328;2023-04-01T15:40:53;8.52;;;2.00;;
52025;SDS011;38041;40.058;18.328;2023-04-01T15:53:50;17.80;;;5.55;;
52025;SDS011;38041;40.058;18.328;2023-04-01T16:04:00;27.60;;;12.70;;
52025;SDS011;38041;40.058;18.328;2023-04-01T16:06:47;18.38;;;10.02;;
52025;SDS011;38041;40.058;18.328;2023-04-01T16:09:19;23.58;;;11.90;;
52025;SDS011;38041;40.058;18.328;2023-04-01T16:19:35;16.98;;;4.82;;
52025;SDS011;38041;40.058;18.328;2023-04-01T16:22:06;17.30;;;4.40;;
52025;SDS011;38041;40.058;18.328;2023-04-01T16:24:56;15.20;;;4.60;;
52025;SDS011;38041;40.058;18.328;2023-04-01T16:27:30;11.45;;;3.53;;
52025;SDS011;38041;40.058;18.328;2023-04-01T16:35:58;11.00;;;2.35;;
52025;SDS011;38041;40.058;18.328;2023-04-01T16:41:00;22.02;;;7.60;;
52025;SDS011;38041;40.058;18.328;2023-04-01T16:43:38;39.10;;;21.10;;
52025;SDS011;38041;40.058;18.328;2023-04-01T16:48:52;39.63;;;22.35;;
52025;SDS011;38041;40.058;18.328;2023-04-01T16:51:22;64.07;;;37.53;;
52025;SDS011;38041;40.058;18.328;2023-04-01T16:56:44;37.30;;;20.97;;
52025;SDS011;38041;40.058;18.328;2023-04-01T17:04:41;23.73;;;9.87;;
52025;SDS011;38041;40.058;18.328;2023-04-01T17:10:22;22.60;;;9.83;;
52025;SDS011;38041;40.058;18.328;2023-04-01T17:15:51;21.80;;;9.27;;
52025;SDS011;38041;40.058;18.328;2023-04-01T17:20:32;11.93;;;4.27;;
52025;SDS011;38041;40.058;18.328;2023-04-01T17:26:06;19.77;;;6.23;;
52025;SDS011;38041;40.058;18.328;2023-04-01T17:41:28;21.73;;;4.93;;
52025;SDS011;38041;40.058;18.328;2023-04-01T17:49:02;11.63;;;2.67;;
52025;SDS011;38041;40.058;18.328;2023-04-01T17:56:54;15.27;;;2.37;;
52025;SDS011;38041;40.058;18.328;2023-04-01T17:59:36;19.23;;;3.93;;
52025;SDS011;38041;40.058;18.328;2023-04-01T18:02:15;19.83;;;4.05;;
52025;SDS011;38041;40.058;18.328;2023-04-01T18:10:22;21.67;;;6.27;;
52025;SDS011;38041;40.058;18.328;2023-04-01T18:20:42;26.10;;;9.80;;
52025;SDS011;38041;40.058;18.328;2023-04-01T18:23:15;17.83;;;5.50;;
52025;SDS011;38041;40.058;18.328;2023-04-01T18:25:48;9.10;;;5.10;;
52025;SDS011;38041;40.058;18.328;2023-04-01T18:28:19;9.97;;;3.50;;
52025;SDS011;38041;40.058;18.328;2023-04-01T18:30:55;17.50;;;7.50;;
52025;SDS011;38041;40.058;18.328;2023-04-01T18:33:28;14.00;;;3.80;;
52025;SDS011;38041;40.058;18.328;2023-04-01T18:36:08;22.20;;;4.83;;
52025;SDS011;38041;40.058;18.328;2023-04-01T18:38:38;17.57;;;5.30;;
52025;SDS011;38041;40.058;18.328;2023-04-01T18:43:42;20.10;;;4.40;;
52025;SDS011;38041;40.058;18.328;2023-04-01T18:51:38;9.87;;;3.00;;
52025;SDS011;38041;40.058;18.328;2023-04-01T18:54:45;14.53;;;3.07;;
52025;SDS011;38041;40.058;18.328;2023-04-01T18:57:16;17.20;;;4.37;;
52025;SDS011;38041;40.058;18.328;2023-04-01T18:59:55;15.10;;;3.40;;
52025;SDS011;38041;40.058;18.328;2023-04-01T19:02:44;13.03;;;3.03;;
52025;SDS011;38041;40.058;18.328;2023-04-01T19:05:29;18.07;;;3.23;;
52025;SDS011;38041;40.058;18.328;2023-04-01T19:26:26;14.87;;;3.53;;
52025;SDS011;38041;40.058;18.328;2023-04-01T19:28:57;11.70;;;2.93;;
52025;SDS011;38041;40.058;18.328;2023-04-01T19:36:49;17.20;;;2.70;;
52025;SDS011;38041;40.058;18.328;2023-04-01T19:42:02;14.77;;;3.07;;
52025;SDS011;38041;40.058;18.328;2023-04-01T19:50:20;15.27;;;3.80;;
52025;SDS011;38041;40.058;18.328;2023-04-01T19:52:53;15.47;;;3.20;;
52025;SDS011;38041;40.058;18.328;2023-04-01T20:00:51;16.27;;;3.27;;
52025;SDS011;38041;40.058;18.328;2023-04-01T20:06:02;11.77;;;2.13;;
52025;SDS011;38041;40.058;18.328;2023-04-01T20:19:33;13.77;;;3.47;;
52025;SDS011;38041;40.058;18.328;2023-04-01T20:22:04;16.03;;;3.63;;
52025;SDS011;38041;40.058;18.328;2023-04-01T20:24:37;18.93;;;3.30;;
52025;SDS011;38041;40.058;18.328;2023-04-01T20:40:30;14.27;;;2.37;;
52025;SDS011;38041;40.058;18.328;2023-04-01T20:53:22;15.37;;;3.07;;
52025;SDS011;38041;40.058;18.328;2023-04-01T20:56:06;17.03;;;2.63;;
52025;SDS011;38041;40.058;18.328;2023-04-01T20:58:51;13.07;;;4.00;;
52025;SDS011;38041;40.058;18.328;2023-04-01T21:01:41;13.13;;;2.20;;
52025;SDS011;38041;40.058;18.328;2023-04-01T21:15:09;16.07;;;1.53;;
52025;SDS011;38041;40.058;18.328;2023-04-01T21:25:45;18.87;;;2.83;;
52025;SDS011;38041;40.058;18.328;2023-04-01T21:47:00;11.40;;;2.40;;
52025;SDS011;38041;40.058;18.328;2023-04-01T22:15:45;11.60;;;2.23;;
52025;SDS011;38041;40.058;18.328;2023-04-01T22:21:09;12.80;;;1.90;;
52025;SDS011;38041;40.058;18.328;2023-04-01T22:23:45;20.77;;;1.70;;
52025;SDS011;38041;40.058;18.328;2023-04-01T22:26:21;10.57;;;1.27;;
52025;SDS011;38041;40.058;18.328;2023-04-01T22:29:05;6.77;;;1.33;;
52025;SDS011;38041;40.058;18.328;2023-04-01T22:31:39;12.17;;;1.00;;
52025;SDS011;38041;40.058;18.328;2023-04-01T22:34:22;18.27;;;2.00;;
52025;SDS011;38041;40.058;18.328;2023-04-01T22:37:06;10.50;;;1.33;;
52025;SDS011;38041;40.058;18.328;2023-04-01T22:39:44;16.37;;;2.20;;
52025;SDS011;38041;40.058;18.328;2023-04-01T22:50:18;12.87;;;1.60;;
52025;SDS011;38041;40.058;18.328;2023-04-01T22:52:47;10.10;;;1.10;;
52025;SDS011;38041;40.058;18.328;2023-04-01T22:55:40;17.00;;;1.87;;
52025;SDS011;38041;40.058;18.328;2023-04-01T22:58:08;8.60;;;1.60;;
52025;SDS011;38041;40.058;18.328;2023-04-01T23:05:55;14.77;;;1.23;;
52025;SDS011;38041;40.058;18.328;2023-04-01T23:08:38;7.87;;;1.97;;
52025;SDS011;38041;40.058;18.328;2023-04-01T23:11:13;17.30;;;1.20;;
52025;SDS011;38041;40.058;18.328;2023-04-01T23:13:44;15.48;;;1.42;;
52025;SDS011;38041;40.058;18.328;2023-04-01T23:16:14;14.13;;;1.13;;
52025;SDS011;38041;40.058;18.328;2023-04-01T23:21:23;11.70;;;2.00;;
52025;SDS011;38041;40.058;18.328;2023-04-01T23:24:05;14.53;;;1.37;;
52025;SDS011;38041;40.058;18.328;2023-04-01T23:26:40;13.97;;;1.33;;
52025;SDS011;38041;40.058;18.328;2023-04-01T23:29:12;17.57;;;2.67;;
52025;SDS011;38041;40.058;18.328;2023-04-01T23:31:42;15.63;;;1.00;;
52025;SDS011;38041;40.058;18.328;2023-04-01T23:36:39;21.60;;;2.57;;
52025;SDS011;38041;40.058;18.328;2023-04-01T23:41:41;16.47;;;2.00;;
52025;SDS011;38041;40.058;18.328;2023-04-01T23:44:10;16.00;;;3.03;;
52025;SDS011;38041;40.058;18.328;2023-04-01T23:46:39;24.33;;;2.77;;
52025;SDS011;38041;40.058;18.328;2023-04-01T23:49:12;14.87;;;1.97;;
52025;SDS011;38041;40.058;18.328;2023-04-01T23:51:52;19.50;;;1.20;;
52025;SDS011;38041;40.058;18.328;2023-04-01T23:54:31;11.50;;;2.13;;
52025;SDS011;38041;40.058;18.328;2023-04-01T23:56:59;14.43;;;1.87;;
52025;SDS011;38041;40.058;18.328;2023-04-01T23:59:33;14.23;;;2.37;;
